• Join FlightAware (Why Join?)
  • Login
  • US Flag 
06:10PM EDT


 

Airport Tracker/Info


-or-


 

Live Flight TrackerFlight Track Log ✈ DLH423 ✈ 22-Apr-2013 ✈ KBOS - EDDF / FRA

Flight Track Log - Related Links

Times and Time Zones

All times are in EDT time to prevent confusion due to time zone crossing. See the DLH423 flight status page for this flight to view local times or setup timezone preferences in your user account.

Time Position Orientation Groundspeed Altitude Reporting Facility
EDT Latitude Longitude Course Direction KTS MPH feet Rate Location/Type
05:11PM 42.4460 -70.9370 75° East 228 262 2,000  Level FlightAware
05:12PM 42.4550 -70.8840 77° East 241 277 2,800 1,200 Climbing FlightAware
05:12PM 42.4580 -70.8510 83° East 241 277 3,200 840 Climbing FlightAware
05:12PM 42.4480 -70.8160 111° Southeast 238 274 3,500 1,200 Climbing FlightAware
05:13PM 42.4310 -70.7710 117° Southeast 235 270 4,400 1,500 Climbing FlightAware
05:13PM 42.4200 -70.7410 116° Southeast 235 270 5,000 1,740 Climbing FlightAware
05:14PM 42.4040 -70.6980 117° Southeast 244 281 6,000 2,280 Climbing FlightAware
05:14PM 42.3920 -70.6640 116° Southeast 248 285 7,100 2,580 Climbing FlightAware
05:15PM 42.3750 -70.6170 116° Southeast 261 300 8,400 2,400 Climbing FlightAware
05:15PM 42.3670 -70.5800 106° East 267 307 9,300 1,620 Climbing FlightAware
05:16PM 42.3490 -70.4980 107° East 311 358 10,300 1,020 Climbing FlightAware
05:17PM 42.3330 -70.4200 105° East 350 403 10,800 840 Climbing FlightAware
05:18PM 42.3090 -70.3020 105° East 365 420 11,700 1,920 Climbing FlightAware
05:18PM 42.2860 -70.1940 106° East 384 442 14,000 2,460 Climbing FlightAware
05:19PM 42.2660 -70.0990 106° East 396 456 15,200 1,740 Climbing FlightAware
05:20PM 42.2490 -69.9710 100° East 407 468 16,800 1,680 Climbing FlightAware
05:21PM 42.2360 -69.8580 99° East 412 474 18,000 1,680 Climbing FlightAware
05:21PM 42.2500 -69.7850 75° East 426 490 18,800 1,680 Climbing FlightAware
05:22PM 42.2880 -69.7060 57° Northeast 434 499 19,700 1,500 Climbing FlightAware
05:23PM 42.3420 -69.5980 56° Northeast 442 509 21,000 1,020 Climbing FlightAware
05:23PM 42.3920 -69.4950 57° Northeast 446 513 21,400 1,200 Climbing FlightAware
05:24PM 42.4430 -69.3910 56° Northeast 469 540 22,700 1,920 Climbing FlightAware
05:25PM 42.4910 -69.2930 56° Northeast 467 537 24,000 1,680 Climbing FlightAware
05:25PM 42.5360 -69.2010 56° Northeast 470 541 25,000 1,320 Climbing FlightAware
05:26PM 42.5900 -69.0890 57° Northeast 479 551 25,900 1,080 Climbing FlightAware
05:29PM 42.8640 -68.5250 56° Northeast 539 620 29,700 1,200 Climbing FlightAware
05:30PM 42.9250 -68.4130 53° Northeast 544 626 30,800 1,380 Climbing FlightAware
05:31PM 43.0300 -68.2200 53° Northeast 553 636 32,300 840 Climbing FlightAware
05:32PM 43.0810 -68.1230 54° Northeast 553 636 32,400 60 Climbing FlightAware
05:33PM 43.1330 -68.0260 54° Northeast 553 636 32,400 1,620 Level FlightAware
05:33PM 43.2190 -67.8680 53° Northeast 574 661 34,600 2,220 Climbing FlightAware
05:34PM 43.2890 -67.7370 54° Northeast 574 661 35,600 1,080 Climbing FlightAware
05:35PM 43.3500 -67.6200 54° Northeast 576 663 36,200 900 Climbing FlightAware
05:35PM 43.4140 -67.5010 53° Northeast 578 665 36,800 540 Climbing FlightAware
05:36PM 43.4830 -67.3690 54° Northeast 582 670 37,000 120 Climbing FlightAware
05:37PM 43.5500 -67.2410 54° Northeast 585 673 37,000  Level FlightAware
05:38PM 43.6180 -67.1110 54° Northeast 583 671 37,000  Level FlightAware
05:38PM 43.6750 -67.0020 54° Northeast 581 669 37,000  Level FlightAware
05:39PM 43.7530 -66.8510 54° Northeast 582 670 37,000  Level FlightAware
05:40PM 43.8160 -66.7290 54° Northeast 584 672 37,000  Level FlightAware
05:40PM 43.8770 -66.6090 55° Northeast 586 674 37,000  Level FlightAware
05:41PM 43.9320 -66.5010 55° Northeast 591 680 37,000  Level FlightAware
05:42PM 44.0130 -66.3420 55° Northeast 595 685 37,000  Level FlightAware
05:45PM 44.3210 -65.7290 55° Northeast 595 685 37,000  Level FlightAware
05:46PM 44.4150 -65.5390 55° Northeast 591 680 37,000  Level FlightAware
05:47PM 44.4680 -65.4300 56° Northeast 584 672 37,000  Level FlightAware
05:47PM 44.5350 -65.2940 55° Northeast 586 674 37,000  Level FlightAware
05:48PM 44.6300 -65.0990 56° Northeast 590 679 37,000  Level FlightAware
05:49PM 44.6910 -64.9680 57° Northeast 593 682 37,000  Level FlightAware
05:50PM 44.7510 -64.8390 57° Northeast 593 682 37,000  Level FlightAware
05:50PM 44.8170 -64.6970 57° Northeast 595 685 37,000  Level FlightAware
05:51PM 44.8660 -64.5920 57° Northeast 594 684 37,000  Level FlightAware
05:52PM 44.9420 -64.4250 57° Northeast 589 678 37,000  Level FlightAware
05:53PM 45.0070 -64.2830 57° Northeast 592 681 37,000  Level FlightAware
05:53PM 45.0660 -64.1530 57° Northeast 596 686 37,000  Level FlightAware
05:54PM 45.1460 -63.9770 57° Northeast 597 687 37,000  Level FlightAware
05:55PM 45.2310 -63.7900 57° Northeast 594 684 37,000  Level FlightAware
05:56PM 45.3070 -63.6180 58° Northeast 593 682 37,000  Level FlightAware
05:57PM 45.3940 -63.4220 58° Northeast 593 682 37,000  Level FlightAware
05:58PM 45.4520 -63.2900 58° Northeast 593 682 37,000  Level FlightAware
05:58PM 45.5020 -63.1770 58° Northeast 593 682 37,000  Level FlightAware
05:59PM 45.5510 -63.0640 58° Northeast 593 682 37,000  Level FlightAware
06:00PM 45.6010 -62.9510 58° Northeast 593 682 37,000  Level FlightAware
06:00PM 45.6500 -62.8380 58° Northeast 593 682 37,000  Level FlightAware
06:01PM 45.7120 -62.6960 58° Northeast 593 682 37,000  Level FlightAware
06:04PM 45.9220 -62.2140 58° Northeast 593 682 37,000  Level FlightAware
06:05PM 46.0650 -61.8640 59° Northeast 579 666 37,000  Level FlightAware
06:06PM 46.1280 -61.7130 59° Northeast 575 662 37,000  Level FlightAware
06:10PM 46.4640 -60.8950 59° Northeast 562 647 37,000  Level FlightAware
06:10PM 46.5160 -60.7670 59° Northeast 557 641 37,000  Level FlightAware
06:11PM 46.5730 -60.6230 60° Northeast 552 635 37,000  Level FlightAware
06:12PM 46.6240 -60.4960 60° Northeast 551 634 37,000  Level FlightAware
06:13PM 46.6820 -60.3500 60° Northeast 550 633 37,000  Level FlightAware
06:13PM 46.7330 -60.2220 60° Northeast 553 636 37,000  Level FlightAware
06:14PM 46.7840 -60.0920 60° Northeast 552 635 37,000  Level FlightAware
06:15PM 46.8390 -59.9520 60° Northeast 549 632 37,000  Level FlightAware
06:15PM 46.8890 -59.8230 60° Northeast 544 626 37,000  Level FlightAware
06:16PM 46.9390 -59.6960 60° Northeast 541 623 37,000  Level FlightAware
06:17PM 46.9960 -59.5470 61° Northeast 541 623 37,000  Level FlightAware
06:17PM 47.0440 -59.4230 60° Northeast 541 623 37,000  Level FlightAware
06:18PM 47.0980 -59.2830 60° Northeast 539 620 37,000  Level FlightAware
06:19PM 47.1470 -59.1540 61° Northeast 539 620 37,000  Level FlightAware
06:20PM 47.2030 -59.0050 61° Northeast 537 618 37,000  Level FlightAware
06:20PM 47.2490 -58.8810 61° Northeast 535 616 37,000  Level FlightAware
06:21PM 47.2980 -58.7530 61° Northeast 529 609 37,000  Level FlightAware
06:22PM 47.3490 -58.6140 62° Northeast 528 608 37,000  Level FlightAware
06:22PM 47.3970 -58.4860 61° Northeast 531 611 37,000  Level FlightAware
06:23PM 47.4510 -58.3410 61° Northeast 531 611 37,000  Level FlightAware
06:24PM 47.5010 -58.2060 61° Northeast 531 611 37,000  Level FlightAware
06:28PM 47.7540 -57.5290 61° Northeast 531 611 37,000  Level FlightAware
06:29PM 47.8380 -57.2530 66° East 519 597 37,000  Level FlightAware
06:29PM 47.8830 -57.1240 62° Northeast 521 600 37,000  Level FlightAware
06:30PM 47.9440 -56.9450 63° Northeast 522 601 37,000  Level FlightAware
06:31PM 47.9780 -56.8440 63° Northeast 524 603 37,000  Level FlightAware
06:32PM 48.0230 -56.7090 63° Northeast 525 604 37,000  Level FlightAware
06:33PM 48.0820 -56.5320 63° Northeast 525 604 37,000  Level FlightAware
06:37PM 48.3760 -55.6390 63° Northeast 516 594 37,000  Level FlightAware
06:38PM 48.4030 -55.5560 64° Northeast 516 594 37,000  Level FlightAware
06:39PM 48.4470 -55.4190 64° Northeast 516 594 37,000  Level FlightAware
06:39PM 48.5100 -55.2200 64° Northeast 523 602 37,000  Level FlightAware
06:42PM 48.6830 -54.6690 64° Northeast 518 596 37,000  Level FlightAware
06:43PM 48.7430 -54.4740 65° Northeast 518 596 37,000  Level FlightAware
06:44PM 48.7870 -54.3320 65° Northeast 520 598 37,000  Level FlightAware
06:45PM 48.8330 -54.1810 65° Northeast 521 600 37,000  Level FlightAware
06:46PM 48.9030 -53.9480 65° Northeast 521 600 37,000  Level FlightAware
06:47PM 48.9730 -53.7150 65° Northeast 525 604 37,000  Level FlightAware
06:48PM 49.0590 -53.4230 66° East 524 603 37,000  Level FlightAware
06:49PM 49.1290 -53.1880 65° Northeast 522 601 37,000  Level FlightAware
06:51PM 49.1940 -52.9620 66° East 520 598 37,000  Level FlightAware
06:52PM 49.2780 -52.6720 66° East 516 594 37,000  Level FlightAware
06:53PM 49.3300 -52.4880 66° East 509 586 37,000  Level FlightAware
06:53PM 49.3580 -52.3890 66° East 507 583 37,000  Level FlightAware
06:54PM 49.4090 -52.2100 66° East 510 587 37,000  Level FlightAware
06:55PM 49.4460 -52.0760 67° East 508 585 37,000  Level FlightAware
06:56PM 49.4830 -51.9430 67° East 505 581 37,000  Level FlightAware
06:56PM 49.5260 -51.7890 67° East 505 581 37,000  Level FlightAware
06:57PM 49.5560 -51.6770 68° East 506 582 37,000  Level FlightAware
06:58PM 49.5980 -51.5240 67° East 511 588 37,000 360 Level FlightAware
07:00PM 49.6930 -51.1720 67° East 506 582 38,000 300 Climbing FlightAware
07:01PM 49.7590 -50.9270 67° East 507 583 38,000  Level FlightAware
07:02PM 49.7910 -50.8130 66° East 507 583 38,000  Level FlightAware
07:02PM 49.8220 -50.6990 67° East 507 583 38,000  Level FlightAware
07:03PM 49.8530 -50.5850 67° East 507 583 38,000  Level FlightAware
07:04PM 49.8920 -50.4430 67° East 507 583 38,000  Level FlightAware
07:04PM 49.9230 -50.3290 67° East 507 583 38,000  Level FlightAware
07:05PM 49.9540 -50.2150 67° East 507 583 38,000  Level FlightAware
07:06PM 49.9850 -50.1010 67° East 507 583 38,000  Level FlightAware
07:06PM 50.0160 -49.9870 67° East 507 583 38,000  Level FlightAware
07:07PM 50.0550 -49.8440 67° East 507 583 38,000  Level FlightAware
07:08PM 50.0860 -49.7290 67° East 507 583 38,000  Level FlightAware
07:09PM 50.1180 -49.6150 66° East 507 583 38,000  Level FlightAware
07:09PM 50.1490 -49.5000 67° East 507 583 38,000  Level FlightAware
07:10PM 50.1800 -49.3860 67° East 507 583 38,000  Level FlightAware
07:10PM 50.2333 -48.9000 67° East 520 598 38,000  Level Gander Center
07:11PM 50.2667 -48.8000 62° Northeast 510 587 38,000  Level Gander Center
07:12PM 50.3167 -48.6000 69° East 510 587 38,000  Level Gander Center
07:13PM 50.3500 -48.4000 75° East 510 587 38,000  Level Gander Center
07:14PM 50.4167 -48.2000 62° Northeast 510 587 38,000  Level Gander Center
07:14PM 50.4333 -48.0500 80° East 510 587 38,000  Level Gander Center
07:17PM 50.5204 -47.7022 68° East  Level FlightAware Approximate
07:24PM 50.8697 -46.2409 71° East  Level FlightAware Approximate
07:25PM 50.9146 -46.0285 71° East  Level FlightAware Approximate
07:26PM 50.9592 -45.8158 72° East  Level FlightAware Approximate
07:27PM 51.0033 -45.6026 72° East  Level FlightAware Approximate
07:28PM 51.0471 -45.3890 72° East  Level FlightAware Approximate
07:29PM 51.0905 -45.1749 72° East  Level FlightAware Approximate
07:30PM 51.1335 -44.9605 72° East  Level FlightAware Approximate
07:31PM 51.1761 -44.7457 72° East  Level FlightAware Approximate
07:32PM 51.2183 -44.5305 73° East  Level FlightAware Approximate
07:33PM 51.2601 -44.3149 73° East  Level FlightAware Approximate
07:34PM 51.3015 -44.0990 73° East  Level FlightAware Approximate
07:35PM 51.3425 -43.8826 73° East  Level FlightAware Approximate
07:36PM 51.3832 -43.6658 73° East  Level FlightAware Approximate
07:37PM 51.4234 -43.4487 73° East  Level FlightAware Approximate
07:38PM 51.4632 -43.2312 74° East  Level FlightAware Approximate
07:39PM 51.5026 -43.0133 74° East  Level FlightAware Approximate
07:40PM 51.5416 -42.7950 74° East  Level FlightAware Approximate
07:41PM 51.5802 -42.5764 74° East  Level FlightAware Approximate
07:42PM 51.6184 -42.3573 74° East  Level FlightAware Approximate
07:43PM 51.6562 -42.1380 74° East  Level FlightAware Approximate
07:44PM 51.6936 -41.9182 75° East  Level FlightAware Approximate
07:45PM 51.7305 -41.6981 75° East  Level FlightAware Approximate
07:46PM 51.7671 -41.4776 75° East  Level FlightAware Approximate
07:47PM 51.8032 -41.2568 75° East  Level FlightAware Approximate
07:48PM 51.8390 -41.0356 75° East  Level FlightAware Approximate
07:49PM 51.8743 -40.8141 75° East  Level FlightAware Approximate
07:50PM 51.9092 -40.5922 76° East  Level FlightAware Approximate
07:51PM 51.9436 -40.3700 76° East  Level FlightAware Approximate
07:52PM 51.9777 -40.1475 76° East  Level FlightAware Approximate
07:53PM 52.0181 -39.9282 68° East  Level FlightAware Approximate
07:54PM 52.0715 -39.7154 68° East  Level FlightAware Approximate
07:55PM 52.1245 -39.5022 68° East  Level FlightAware Approximate
07:56PM 52.1771 -39.2885 68° East  Level FlightAware Approximate
07:57PM 52.2294 -39.0742 68° East  Level FlightAware Approximate
07:58PM 52.2812 -38.8595 68° East  Level FlightAware Approximate
07:59PM 52.3326 -38.6443 69° East  Level FlightAware Approximate
08:00PM 52.3837 -38.4285 69° East  Level FlightAware Approximate
08:01PM 52.4343 -38.2123 69° East  Level FlightAware Approximate
08:02PM 52.4846 -37.9955 69° East  Level FlightAware Approximate
08:03PM 52.5345 -37.7783 69° East  Level FlightAware Approximate
08:04PM 52.5839 -37.5606 69° East  Level FlightAware Approximate
08:05PM 52.6330 -37.3424 70° East  Level FlightAware Approximate
08:06PM 52.6817 -37.1237 70° East  Level FlightAware Approximate
08:07PM 52.7299 -36.9045 70° East  Level FlightAware Approximate
08:08PM 52.7778 -36.6848 70° East  Level FlightAware Approximate
08:09PM 52.8252 -36.4647 70° East  Level FlightAware Approximate
08:10PM 52.8723 -36.2441 70° East  Level FlightAware Approximate
08:11PM 52.9189 -36.0229 71° East  Level FlightAware Approximate
08:12PM 52.9651 -35.8014 71° East  Level FlightAware Approximate
08:13PM 53.0109 -35.5793 71° East  Level FlightAware Approximate
08:14PM 53.0564 -35.3568 71° East  Level FlightAware Approximate
08:15PM 53.1013 -35.1338 71° East  Level FlightAware Approximate
08:16PM 53.1459 -34.9104 72° East  Level FlightAware Approximate
08:17PM 53.1900 -34.6864 72° East  Level FlightAware Approximate
08:18PM 53.2337 -34.4621 72° East  Level FlightAware Approximate
08:19PM 53.2771 -34.2372 72° East  Level FlightAware Approximate
08:20PM 53.3199 -34.0119 72° East  Level FlightAware Approximate
08:21PM 53.3624 -33.7862 72° East  Level FlightAware Approximate
08:22PM 53.4044 -33.5600 73° East  Level FlightAware Approximate
08:23PM 53.4460 -33.3334 73° East  Level FlightAware Approximate
08:24PM 53.4872 -33.1063 73° East  Level FlightAware Approximate
08:25PM 53.5279 -32.8788 73° East  Level FlightAware Approximate
08:26PM 53.5682 -32.6508 73° East  Level FlightAware Approximate
08:27PM 53.6081 -32.4225 74° East  Level FlightAware Approximate
08:28PM 53.6475 -32.1937 74° East  Level FlightAware Approximate
08:29PM 53.6865 -31.9644 74° East  Level FlightAware Approximate
08:30PM 53.7251 -31.7348 74° East  Level FlightAware Approximate
08:31PM 53.7632 -31.5047 74° East  Level FlightAware Approximate
08:32PM 53.8008 -31.2742 74° East  Level FlightAware Approximate
08:33PM 53.8381 -31.0433 75° East  Level FlightAware Approximate
08:34PM 53.8749 -30.8120 75° East  Level FlightAware Approximate
08:35PM 53.9112 -30.5803 75° East  Level FlightAware Approximate
08:36PM 53.9471 -30.3482 75° East  Level FlightAware Approximate
08:37PM 53.9826 -30.1156 75° East  Level FlightAware Approximate
08:38PM 54.0168 -29.8824 76° East  Level FlightAware Approximate
08:39PM 54.0497 -29.6484 76° East  Level FlightAware Approximate
08:40PM 54.0822 -29.4141 77° East  Level FlightAware Approximate
08:41PM 54.1143 -29.1794 77° East  Level FlightAware Approximate
08:42PM 54.1459 -28.9444 77° East  Level FlightAware Approximate
08:43PM 54.1770 -28.7090 77° East  Level FlightAware Approximate
08:44PM 54.2077 -28.4732 77° East  Level FlightAware Approximate
08:45PM 54.2379 -28.2371 78° East  Level FlightAware Approximate
08:46PM 54.2677 -28.0007 78° East  Level FlightAware Approximate
08:47PM 54.2970 -27.7639 78° East  Level FlightAware Approximate
08:48PM 54.3258 -27.5268 78° East  Level FlightAware Approximate
08:49PM 54.3542 -27.2893 78° East  Level FlightAware Approximate
08:50PM 54.3821 -27.0515 79° East  Level FlightAware Approximate
08:51PM 54.4096 -26.8135 79° East  Level FlightAware Approximate
08:52PM 54.4367 -26.5751 79° East  Level FlightAware Approximate
08:53PM 54.4633 -26.3364 79° East  Level FlightAware Approximate
08:54PM 54.4894 -26.0974 79° East  Level FlightAware Approximate
08:55PM 54.5150 -25.8581 79° East  Level FlightAware Approximate
08:56PM 54.5402 -25.6185 80° East  Level FlightAware Approximate
08:57PM 54.5649 -25.3786 80° East  Level FlightAware Approximate
08:58PM 54.5891 -25.1385 80° East  Level FlightAware Approximate
08:59PM 54.6129 -24.8980 80° East  Level FlightAware Approximate
09:00PM 54.6362 -24.6572 80° East  Level FlightAware Approximate
09:01PM 54.6590 -24.4162 81° East  Level FlightAware Approximate
09:02PM 54.6819 -24.1751 80° East  Level FlightAware Approximate
09:03PM 54.7047 -23.9338 81° East  Level FlightAware Approximate
09:04PM 54.7271 -23.6923 81° East  Level FlightAware Approximate
09:05PM 54.7489 -23.4505 81° East  Level FlightAware Approximate
09:06PM 54.7702 -23.2084 82° East  Level FlightAware Approximate
09:07PM 54.7906 -22.9659 82° East  Level FlightAware Approximate
09:08PM 54.8106 -22.7232 82° East  Level FlightAware Approximate
09:09PM 54.8300 -22.4803 82° East  Level FlightAware Approximate
09:10PM 54.8490 -22.2372 82° East  Level FlightAware Approximate
09:11PM 54.8675 -21.9938 82° East  Level FlightAware Approximate
09:12PM 54.8855 -21.7502 83° East  Level FlightAware Approximate
09:13PM 54.9030 -21.5064 83° East  Level FlightAware Approximate
09:14PM 54.9200 -21.2623 83° East  Level FlightAware Approximate
09:15PM 54.9365 -21.0181 83° East  Level FlightAware Approximate
09:16PM 54.9525 -20.7737 83° East  Level FlightAware Approximate
09:17PM 54.9681 -20.5291 84° East  Level FlightAware Approximate
09:18PM 54.9832 -20.2843 84° East  Level FlightAware Approximate
09:19PM 54.9977 -20.0393 84° East  Level FlightAware Approximate
09:20PM 54.9844 -19.7950 97° East  Level FlightAware Approximate
09:21PM 54.9654 -19.5510 98° East  Level FlightAware Approximate
09:22PM 54.9459 -19.3073 98° East  Level FlightAware Approximate
09:23PM 54.9259 -19.0638 98° East  Level FlightAware Approximate
09:24PM 54.9055 -18.8205 98° East  Level FlightAware Approximate
09:25PM 54.8845 -18.5775 98° East  Level FlightAware Approximate
09:26PM 54.8631 -18.3348 99° East  Level FlightAware Approximate
09:27PM 54.8412 -18.0923 99° East  Level FlightAware Approximate
09:28PM 54.8188 -17.8501 99° East  Level FlightAware Approximate
09:29PM 54.7959 -17.6082 99° East  Level FlightAware Approximate
09:30PM 54.7725 -17.3665 99° East  Level FlightAware Approximate
09:31PM 54.7486 -17.1251 100° East  Level FlightAware Approximate
09:32PM 54.7243 -16.8840 100° East  Level FlightAware Approximate
09:33PM 54.6995 -16.6432 100° East  Level FlightAware Approximate
09:34PM 54.6743 -16.4027 100° East  Level FlightAware Approximate
09:35PM 54.6485 -16.1625 100° East  Level FlightAware Approximate
09:36PM 54.6223 -15.9226 101° East  Level FlightAware Approximate
09:37PM 54.5956 -15.6830 101° East  Level FlightAware Approximate
09:37PM 54.8330 -13.8430 101° East 542 624 38,000  Level FlightAware
09:38PM 54.5684 -15.4437 101° East  Level FlightAware Approximate
09:38PM 54.7980 -13.6280 106° East 543 625 38,000  Level FlightAware
09:39PM 54.7720 -13.4570 105° East 541 623 38,000  Level FlightAware
09:40PM 54.7350 -13.2230 105° East 543 625 38,000  Level FlightAware
09:41PM 54.6980 -12.9890 105° East 543 625 38,000  Level FlightAware
09:41PM 54.6710 -12.8190 105° East 539 620 38,000  Level FlightAware
09:42PM 54.6340 -12.5940 106° East 539 620 38,000  Level FlightAware
09:43PM 54.6080 -12.4330 106° East 538 619 38,000  Level FlightAware
09:44PM 54.5770 -12.2430 106° East 537 618 38,000  Level FlightAware
09:44PM 54.5490 -12.0810 107° East 538 619 38,000  Level FlightAware
09:45PM 54.5180 -11.8950 106° East 535 616 38,000  Level FlightAware
09:46PM 54.4900 -11.7310 106° East 536 617 38,000  Level FlightAware
09:47PM 54.4620 -11.5670 106° East 536 617 38,000  Level FlightAware
09:47PM 54.4290 -11.3820 107° East 535 616 38,000  Level FlightAware
09:48PM 54.4010 -11.2190 106° East 535 616 38,000  Level FlightAware
09:49PM 54.3610 -10.9940 107° East 535 616 38,000  Level FlightAware
09:50PM 54.3280 -10.8140 107° East 537 618 38,000  Level FlightAware
09:50PM 54.2990 -10.6500 107° East 537 618 38,000  Level FlightAware
09:51PM 54.2650 -10.4670 108° East 538 619 38,000  Level FlightAware
09:52PM 54.2360 -10.3060 107° East 539 620 38,000  Level FlightAware
09:52PM 54.2050 -10.1440 108° East 538 619 38,000  Level FlightAware
09:53PM 54.1710 -9.9630 108° East 534 615 38,000  Level FlightAware
09:54PM 54.1410 -9.8030 108° East 534 615 38,000  Level FlightAware
09:55PM 54.1060 -9.6230 108° East 535 616 38,000  Level FlightAware
09:55PM 54.0760 -9.4650 108° East 531 611 38,000  Level FlightAware
09:56PM 54.0450 -9.3060 108° East 533 613 38,000  Level FlightAware
09:57PM 54.0100 -9.1270 108° East 531 611 38,000 -1,320 Level FlightAware
09:57PM 53.9828 -8.9909 108° East 460 529 36,400  Descending FlightAware UK
09:57PM 53.9780 -8.9660 108° East 531 611 38,000 180 Climbing FlightAware
09:58PM 53.9593 -8.8724 108° East 456 525 36,500 -2,460 Descending FlightAware UK
09:58PM 53.9452 -8.8013 109° East 458 527 36,500 3,420 Level FlightAware UK
09:58PM 53.9430 -8.7920 109° East 531 611 38,000 -300 Climbing FlightAware
09:58PM 53.9262 -8.7066 109° East 458 527 36,400 -2,700 Descending FlightAware UK
09:59PM 53.9117 -8.6358 109° East 454 522 36,500  Climbing FlightAware UK
09:59PM 53.8974 -8.5651 109° East 456 525 36,400 -180 Descending FlightAware UK
09:59PM 53.8830 -8.4947 109° East 456 525 36,400  Level FlightAware UK
10:00PM 53.8684 -8.4235 109° East 458 527 36,400  Level FlightAware UK
10:00PM 53.8540 -8.3531 109° East 456 525 36,400 120 Level FlightAware UK
10:00PM 53.8396 -8.2827 109° East 454 522 36,500 120 Climbing FlightAware UK
10:00PM 53.8253 -8.2124 109° East 454 522 36,500  Level FlightAware UK
10:01PM 53.8106 -8.1422 110° East 456 525 36,500 3,900 Level FlightAware UK
10:01PM 53.8120 -8.1510 110° East 530 610 38,000 -300 Climbing FlightAware
10:01PM 53.7913 -8.0485 110° East 456 525 36,400 -2,640 Descending FlightAware UK
10:01PM 53.7767 -7.9781 109° East 456 525 36,400  Level FlightAware UK
10:02PM 53.7620 -7.9078 109° East 460 529 36,400  Level FlightAware UK
10:02PM 53.7472 -7.8380 110° East 456 525 36,400 120 Level FlightAware UK
10:02PM 53.7324 -7.7685 110° East 456 525 36,500 120 Climbing FlightAware UK
10:03PM 53.7129 -7.6762 110° East 456 525 36,500  Level FlightAware UK
10:03PM 53.6984 -7.6078 110° East 456 525 36,500  Level FlightAware UK
10:03PM 53.6838 -7.5394 110° East 454 522 36,500  Level FlightAware UK
10:04PM 53.6693 -7.4718 110° East 454 522 36,500 -180 Level FlightAware UK
10:04PM 53.6547 -7.4036 110° East 454 522 36,400 -180 Descending FlightAware UK
10:04PM 53.6399 -7.3351 110° East 454 522 36,400  Level FlightAware UK
10:05PM 53.6251 -7.2666 110° East 454 522 36,400  Level FlightAware UK
10:05PM 53.6102 -7.1972 110° East 454 522 36,400  Level FlightAware UK
10:05PM 53.5953 -7.1286 110° East 456 525 36,400  Level FlightAware UK
10:05PM 53.5802 -7.0598 110° East 454 522 36,400  Level FlightAware UK
10:06PM 53.5651 -6.9907 110° East 456 525 36,400  Level FlightAware UK
10:06PM 53.5499 -6.9218 110° East 456 525 36,400  Level FlightAware UK
10:06PM 53.5347 -6.8529 110° East 456 525 36,400  Level FlightAware UK
10:07PM 53.5194 -6.7842 110° East 454 522 36,400  Level FlightAware UK
10:07PM 53.5041 -6.7155 110° East 454 522 36,400  Level FlightAware UK
10:07PM 53.4889 -6.6467 110° East 454 522 36,400  Level FlightAware UK
10:08PM 53.4736 -6.5781 111° Southeast 454 522 36,400  Level FlightAware UK
10:08PM 53.4581 -6.5094 111° Southeast 454 522 36,400  Level FlightAware UK
10:08PM 53.4426 -6.4406 111° Southeast 454 522 36,400  Level FlightAware UK
10:08PM 53.4269 -6.3718 111° Southeast 454 522 36,400  Level FlightAware UK
10:09PM 53.4113 -6.3029 111° Southeast 456 525 36,400  Level FlightAware UK
10:09PM 53.3955 -6.2334 111° Southeast 454 522 36,400  Level FlightAware UK
10:09PM 53.3797 -6.1647 111° Southeast 452 520 36,400  Level FlightAware UK
10:10PM 53.3641 -6.0959 111° Southeast 452 520 36,400  Level FlightAware UK
10:10PM 53.3483 -6.0272 111° Southeast 454 522 36,400  Level FlightAware UK
10:10PM 53.3324 -5.9584 111° Southeast 454 522 36,400  Level FlightAware UK
10:11PM 53.3164 -5.8893 111° Southeast 454 522 36,400  Level FlightAware UK
10:11PM 53.3002 -5.8195 111° Southeast 454 522 36,400  Level FlightAware UK
10:11PM 53.2844 -5.7512 111° Southeast 456 525 36,400  Level FlightAware UK
10:11PM 53.2680 -5.6814 111° Southeast 456 525 36,400  Level FlightAware UK
10:12PM 53.2522 -5.6132 111° Southeast 452 520 36,400  Level FlightAware UK
10:12PM 53.2359 -5.5436 111° Southeast 454 522 36,400  Level FlightAware UK
10:12PM 53.2196 -5.4749 112° Southeast 458 527 36,400  Level FlightAware UK
10:13PM 53.2032 -5.4061 112° Southeast 454 522 36,400  Level FlightAware UK
10:13PM 53.1869 -5.3375 112° Southeast 456 525 36,400  Level FlightAware UK
10:13PM 53.1706 -5.2689 112° Southeast 458 527 36,400  Level FlightAware UK
10:14PM 53.1542 -5.2004 112° Southeast 452 520 36,400  Level FlightAware UK
10:14PM 53.1379 -5.1322 112° Southeast 456 525 36,400  Level FlightAware UK
10:14PM 53.1217 -5.0639 112° Southeast 458 527 36,400  Level FlightAware UK
10:14PM 53.1050 -4.9949 112° Southeast 458 527 36,400 3,660 Level FlightAware UK
10:15PM 53.1020 -4.9850 112° Southeast 531 611 38,000  Climbing FlightAware
10:15PM 53.0830 -4.9042 112° Southeast 456 525 36,400 -2,580 Descending FlightAware UK
10:15PM 53.0666 -4.8367 112° Southeast 452 520 36,500 3,420 Climbing FlightAware UK
10:15PM 53.0620 -4.8180 112° Southeast 525 604 38,000 3,720 Climbing FlightAware
10:16PM 53.0459 -4.7522 112° Southeast 528 608 38,000 -2,820 Level FlightAware ADS-B
10:16PM 53.0284 -4.6803 112° Southeast 458 527 36,500  Descending FlightAware UK
10:16PM 53.0178 -4.6372 112° Southeast 527 606 38,000  Climbing FlightAware ADS-B
10:16PM 53.0011 -4.5686 112° Southeast 454 522 36,500  Descending FlightAware UK
10:17PM 52.9858 -4.5073 112° Southeast 523 602 38,000  Climbing FlightAware ADS-B
10:17PM 52.9682 -4.4356 112° Southeast 456 525 36,500  Descending FlightAware UK
10:17PM 52.9582 -4.3955 112° Southeast 520 598 38,000  Climbing FlightAware ADS-B
10:17PM 52.9407 -4.3253 112° Southeast 454 522 36,500  Descending FlightAware UK
10:18PM 52.9295 -4.2804 112° Southeast 517 595 38,000  Climbing FlightAware ADS-B
10:18PM 52.9134 -4.2155 112° Southeast 452 520 36,500  Descending FlightAware UK
10:18PM 52.9013 -4.1675 112° Southeast 516 594 38,000  Climbing FlightAware ADS-B
10:18PM 52.8861 -4.1066 112° Southeast 452 520 36,500  Descending FlightAware UK
10:19PM 52.8737 -4.0579 112° Southeast 516 594 38,000  Climbing FlightAware ADS-B
10:19PM 52.8590 -3.9983 112° Southeast 452 520 36,500  Descending FlightAware UK
10:19PM 52.8461 -3.9479 112° Southeast 517 595 38,000  Climbing FlightAware ADS-B
10:19PM 52.8311 -3.8887 112° Southeast 452 520 36,500  Descending FlightAware UK
10:20PM 52.8171 -3.8344 112° Southeast 516 594 38,000  Climbing FlightAware ADS-B
10:20PM 52.7977 -3.7574 112° Southeast 452 520 36,500  Descending FlightAware UK
10:20PM 52.7894 -3.7256 112° Southeast 517 595 38,000 -240 Climbing FlightAware ADS-B
10:21PM 52.7699 -3.6487 112° Southeast 454 522 36,400  Descending FlightAware UK
10:21PM 52.7609 -3.6138 112° Southeast 518 596 38,000  Climbing FlightAware ADS-B
10:21PM 52.7420 -3.5398 112° Southeast 456 525 36,400  Descending FlightAware UK
10:21PM 52.7319 -3.5018 112° Southeast 517 595 38,000  Climbing FlightAware ADS-B
10:22PM 52.7137 -3.4305 112° Southeast 454 522 36,400  Descending FlightAware UK
10:22PM 52.7014 -3.3837 112° Southeast 515 593 38,000  Climbing FlightAware ADS-B
10:22PM 52.6858 -3.3232 112° Southeast 452 520 36,400  Descending FlightAware UK
10:22PM 52.6733 -3.2754 112° Southeast 515 593 38,000  Climbing FlightAware ADS-B
10:23PM 52.6578 -3.2156 112° Southeast 452 520 36,400  Descending FlightAware UK
10:23PM 52.6448 -3.1671 112° Southeast 518 596 38,000  Climbing FlightAware ADS-B
10:23PM 52.6294 -3.1078 112° Southeast 454 522 36,400 -2,940 Descending FlightAware UK
10:23PM 52.6124 -3.0429 113° Southeast 456 525 36,400 3,660 Level FlightAware UK
10:23PM 52.6054 -3.0168 113° Southeast 520 598 38,000  Climbing FlightAware ADS-B
10:24PM 52.5898 -2.9568 113° Southeast 456 525 36,400  Descending FlightAware UK
10:24PM 52.5741 -2.8984 113° Southeast 515 593 38,000  Climbing FlightAware ADS-B
10:24PM 52.5552 -2.8270 113° Southeast 454 522 36,400  Descending FlightAware UK
10:25PM 52.5456 -2.7910 113° Southeast 514 592 38,000  Climbing FlightAware ADS-B
10:25PM 52.5268 -2.7202 113° Southeast 452 520 36,400  Descending FlightAware UK
10:25PM 52.5169 -2.6835 113° Southeast 514 592 38,000  Climbing FlightAware ADS-B
10:25PM 52.4982 -2.6137 113° Southeast 454 522 36,400  Descending FlightAware UK
10:26PM 52.4868 -2.5716 113° Southeast 514 592 38,000  Climbing FlightAware ADS-B
10:26PM 52.4692 -2.5053 113° Southeast 452 520 36,400  Descending FlightAware UK
10:26PM 52.4579 -2.4645 113° Southeast 513 590 38,000 180 Climbing FlightAware ADS-B
10:26PM 52.4408 -2.3996 113° Southeast 452 520 36,500  Descending FlightAware UK
10:27PM 52.4284 -2.3556 113° Southeast 515 593 38,000 -240 Climbing FlightAware ADS-B
10:27PM 52.4118 -2.2930 113° Southeast 454 522 36,400  Descending FlightAware UK
10:27PM 52.3995 -2.2485 113° Southeast 516 594 38,000 180 Climbing FlightAware ADS-B
10:27PM 52.3827 -2.1864 113° Southeast 450 518 36,500  Descending FlightAware UK
10:28PM 52.3700 -2.1409 113° Southeast 521 600 38,000 -240 Climbing FlightAware ADS-B
10:28PM 52.3531 -2.0790 113° Southeast 458 527 36,400  Descending FlightAware UK
10:28PM 52.3398 -2.0312 113° Southeast 523 602 38,000 180 Climbing FlightAware ADS-B
10:28PM 52.3234 -1.9707 113° Southeast 458 527 36,500  Descending FlightAware UK
10:29PM 52.3094 -1.9203 113° Southeast 519 597 38,000  Climbing FlightAware ADS-B
10:29PM 52.2877 -1.8420 113° Southeast 456 525 36,500  Descending FlightAware UK
10:29PM 52.2767 -1.8028 113° Southeast 516 594 38,000  Climbing FlightAware ADS-B
10:29PM 52.2581 -1.7355 113° Southeast 450 518 36,500  Descending FlightAware UK
10:30PM 52.2467 -1.6950 113° Southeast 515 593 38,000  Climbing FlightAware ADS-B
10:30PM 52.2290 -1.6315 113° Southeast 452 520 36,500  Descending FlightAware UK
10:30PM 52.2168 -1.5880 113° Southeast 516 594 38,000  Climbing FlightAware ADS-B
10:30PM 52.1988 -1.5239 113° Southeast 454 522 36,500  Descending FlightAware UK
10:31PM 52.1869 -1.4812 113° Southeast 518 596 38,000  Climbing FlightAware ADS-B
10:31PM 52.1689 -1.4180 113° Southeast 454 522 36,500  Descending FlightAware UK
10:31PM 52.1564 -1.3741 113° Southeast 517 595 38,000  Climbing FlightAware ADS-B
10:31PM 52.1389 -1.3122 113° Southeast 454 522 36,500  Descending FlightAware UK
10:32PM 52.1261 -1.2668 113° Southeast 520 598 38,000  Climbing FlightAware ADS-B
10:32PM 52.1089 -1.2069 113° Southeast 454 522 36,500  Descending FlightAware UK
10:32PM 52.0956 -1.1597 113° Southeast 520 598 38,000  Climbing FlightAware ADS-B
10:32PM 52.0785 -1.1002 113° Southeast 458 527 36,500  Descending FlightAware UK
10:33PM 52.0649 -1.0527 113° Southeast 516 594 38,000  Climbing FlightAware ADS-B
10:33PM 52.0486 -0.9954 113° Southeast 454 522 36,500  Descending FlightAware UK
10:33PM 52.0348 -0.9477 113° Southeast 516 594 38,000  Climbing FlightAware ADS-B
10:33PM 52.0177 -0.8884 113° Southeast 452 520 36,500  Descending FlightAware UK
10:34PM 52.0042 -0.8421 113° Southeast 515 593 38,000 -240 Climbing FlightAware ADS-B
10:34PM 51.9876 -0.7847 113° Southeast 456 525 36,400  Descending FlightAware UK
10:34PM 51.9734 -0.7366 113° Southeast 512 589 38,000 180 Climbing FlightAware ADS-B
10:34PM 51.9573 -0.6810 113° Southeast 450 518 36,500  Descending FlightAware UK
10:35PM 51.9431 -0.6319 113° Southeast 512 589 38,000 -180 Climbing FlightAware ADS-B
10:35PM 51.9209 -0.5561 113° Southeast 454 522 36,400  Descending FlightAware UK
10:35PM 51.9122 -0.5266 113° Southeast 511 588 38,000 180 Climbing FlightAware ADS-B
10:36PM 51.8903 -0.4521 113° Southeast 454 522 36,500  Descending FlightAware UK
10:36PM 51.8818 -0.4230 113° Southeast 513 590 38,000 -240 Climbing FlightAware ADS-B
10:36PM 51.8599 -0.3484 113° Southeast 450 518 36,400  Descending FlightAware UK
10:36PM 51.8512 -0.3197 113° Southeast 511 588 38,000  Climbing FlightAware ADS-B
10:37PM 51.8295 -0.2459 113° Southeast 456 525 36,400  Descending FlightAware UK
10:37PM 51.8206 -0.2159 113° Southeast 511 588 38,000 180 Climbing FlightAware ADS-B
10:37PM 51.7987 -0.1425 113° Southeast 454 522 36,500  Descending FlightAware UK
10:37PM 51.7896 -0.1124 113° Southeast 511 588 38,000 -240 Climbing FlightAware ADS-B
10:38PM 51.7679 -0.0398 113° Southeast 450 518 36,400  Descending FlightAware UK
10:38PM 51.7590 -0.0098 113° Southeast 509 586 38,000 240 Climbing FlightAware ADS-B
10:38PM 51.7431 0.0427 113° Southeast 454 522 36,500  Descending FlightAware UK
10:38PM 51.7281 0.0928 113° Southeast 510 587 38,000  Climbing FlightAware ADS-B
10:39PM 51.7060 0.1661 113° Southeast 454 522 36,500  Descending FlightAware UK
10:39PM 51.6968 0.1968 113° Southeast 509 586 38,000  Climbing FlightAware ADS-B
10:39PM 51.6755 0.2669 113° Southeast 450 518 36,500  Descending FlightAware UK
10:39PM 51.6656 0.2998 113° Southeast 509 586 38,000 -180 Climbing FlightAware ADS-B
10:40PM 51.6382 0.3896 113° Southeast 454 522 36,400  Descending FlightAware UK
10:40PM 51.6348 0.4009 113° Southeast 506 582 38,000 240 Climbing FlightAware ADS-B
10:40PM 51.6137 0.4698 113° Southeast 452 520 36,500  Descending FlightAware UK
10:40PM 51.6005 0.5128 113° Southeast 505 581 38,000  Climbing FlightAware ADS-B
10:41PM 51.5831 0.5702 113° Southeast 456 525 36,500  Descending FlightAware UK
10:41PM 51.5695 0.6140 113° Southeast 503 579 38,000  Climbing FlightAware ADS-B
10:41PM 51.5521 0.6703 113° Southeast 454 522 36,500  Descending FlightAware UK
10:41PM 51.5386 0.7138 113° Southeast 496 571 38,000  Climbing FlightAware ADS-B
10:42PM 51.5217 0.7688 113° Southeast 452 520 36,500  Descending FlightAware UK
10:42PM 51.5080 0.8129 113° Southeast 495 570 38,000 -240 Climbing FlightAware ADS-B
10:42PM 51.4911 0.8677 113° Southeast 450 518 36,400  Descending FlightAware UK
10:42PM 51.4771 0.9122 113° Southeast 494 568 38,000 180 Climbing FlightAware ADS-B
10:43PM 51.4603 0.9664 113° Southeast 452 520 36,500  Descending FlightAware UK
10:43PM 51.4463 1.0110 113° Southeast 495 570 38,000 -180 Climbing FlightAware ADS-B
10:43PM 51.4237 1.0834 113° Southeast 452 520 36,400  Descending FlightAware UK
10:43PM 51.4155 1.1095 113° Southeast 495 570 38,000 180 Climbing FlightAware ADS-B
10:44PM 51.3929 1.1814 113° Southeast 452 520 36,500  Descending FlightAware UK
10:44PM 51.3846 1.2077 113° Southeast 496 571 38,000  Climbing FlightAware ADS-B
10:44PM 51.3678 1.2610 113° Southeast 452 520 36,500  Descending FlightAware UK
10:44PM 51.3531 1.3074 113° Southeast 497 572 38,000  Climbing FlightAware ADS-B
10:45PM 51.3370 1.3592 113° Southeast 452 520 36,500  Descending FlightAware UK
10:45PM 51.3218 1.4054 113° Southeast 498 573 38,000  Climbing FlightAware ADS-B
10:45PM 51.3000 1.4749 113° Southeast 452 520 36,500  Descending FlightAware UK
10:45PM 51.2954 1.4893 113° Southeast 498 573 38,000 -240 Climbing FlightAware ADS-B
10:46PM 51.2785 1.5565 113° Southeast 452 520 36,400  Descending FlightAware UK
10:46PM 51.2783 1.5568 113° Southeast 493 567 38,000  Climbing FlightAware ADS-B
10:46PM 51.2667 1.6193 113° Southeast 454 522 36,400 -2,760 Descending FlightAware UK
10:46PM 51.2561 1.6818 105° East 452 520 36,400 3,660 Level FlightAware UK
10:46PM 51.2540 1.6960 105° East 488 562 38,000  Climbing FlightAware
10:47PM 51.2418 1.7644 105° East 452 520 36,400 -2,880 Descending FlightAware UK
10:47PM 51.2310 1.8268 105° East 452 520 36,400 3,960 Level FlightAware UK
10:47PM 51.2280 1.8428 105° East 490 564 38,000 180 Climbing FlightAware ADS-B
10:47PM 51.2128 1.9314 105° East 452 520 36,500  Descending FlightAware UK
10:47PM 51.2095 1.9483 105° East 489 563 38,000  Climbing FlightAware ADS-B
10:48PM 51.1978 2.0157 105° East 452 520 36,500  Descending FlightAware UK
10:48PM 51.1912 2.0537 105° East 489 563 38,000  Climbing FlightAware ADS-B
10:48PM 51.1798 2.1194 105° East 452 520 36,500  Descending FlightAware UK
10:48PM 51.1731 2.1608 105° East 489 563 38,000  Climbing FlightAware ADS-B
10:49PM 51.1623 2.2240 105° East 450 518 36,500  Descending FlightAware UK
10:49PM 51.1550 2.2673 105° East 491 565 38,000 -240 Climbing FlightAware ADS-B
10:49PM 51.1451 2.3270 105° East 454 522 36,400  Descending FlightAware UK
10:50PM 51.1369 2.3741 105° East 490 564 38,000  Climbing FlightAware ADS-B
10:50PM 51.1270 2.4335 105° East 452 520 36,400  Descending FlightAware UK
10:50PM 51.1186 2.4817 105° East 489 563 38,000  Climbing FlightAware ADS-B
10:50PM 51.1057 2.5570 105° East 450 518 36,400  Descending FlightAware UK
10:51PM 51.1006 2.5855 105° East 491 565 38,000  Climbing FlightAware ADS-B
10:51PM 51.0910 2.6415 105° East 452 520 36,400 -2,820 Descending FlightAware UK
10:51PM 51.0803 2.7024 106° East 452 520 36,500 4,560 Climbing FlightAware UK
10:51PM 51.0786 2.7129 106° East 491 565 38,000  Climbing FlightAware ADS-B
10:51PM 51.0691 2.7662 106° East 452 520 36,500 -2,820 Descending FlightAware UK
10:52PM 51.0585 2.8273 105° East 452 520 36,500 2,880 Level FlightAware UK
10:52PM 51.0508 2.8701 105° East 490 564 38,000  Climbing FlightAware ADS-B
10:52PM 51.0403 2.9326 105° East 452 520 36,500  Descending FlightAware UK
10:52PM 51.0309 2.9842 105° East 491 565 38,000 -180 Climbing FlightAware ADS-B
10:53PM 51.0143 3.0779 105° East 454 522 36,400 -2,220 Descending FlightAware UK
10:53PM 51.0030 3.1401 106° East 454 522 36,400 4,560 Level FlightAware UK
10:53PM 51.0016 3.1491 106° East 493 567 38,000  Climbing FlightAware ADS-B
10:53PM 50.9918 3.2024 106° East 452 520 36,400 -2,940 Descending FlightAware UK
10:54PM 50.9808 3.2645 106° East 454 522 36,400 2,820 Level FlightAware UK
10:54PM 50.9740 3.3040 106° East 488 562 38,000  Climbing FlightAware
10:54PM 50.9698 3.3258 106° East 452 520 36,400 -4,800 Descending FlightAware UK
10:54PM 50.9586 3.3892 106° East 454 522 36,400  Level FlightAware UK
10:55PM 50.9476 3.4509 106° East 454 522 36,400 4,800 Level FlightAware UK
10:55PM 50.9490 3.4420 106° East 487 560 38,000 300 Climbing FlightAware
10:55PM 50.9364 3.5126 106° East 452 520 36,500 -2,700 Descending FlightAware UK
10:55PM 50.9251 3.5747 106° East 452 520 36,500 3,060 Level FlightAware UK
10:55PM 50.9210 3.5950 106° East 484 557 38,000  Climbing FlightAware
10:56PM 50.9062 3.6767 106° East 450 518 36,500 -2,460 Descending FlightAware UK
10:56PM 50.8945 3.7395 106° East 452 520 36,500 4,260 Level FlightAware UK
10:56PM 50.8960 3.7330 106° East 488 562 38,000 -360 Climbing FlightAware
10:56PM 50.8827 3.8024 106° East 454 522 36,400 -2,940 Descending FlightAware UK
10:57PM 50.8714 3.8631 106° East 452 520 36,400 3,960 Level FlightAware UK
10:57PM 50.8700 3.8700 106° East 490 564 38,000 240 Climbing FlightAware
10:57PM 50.8562 3.9464 106° East 456 525 36,500 -2,700 Descending FlightAware UK
10:57PM 50.8443 4.0101 106° East 458 527 36,400 3,180 Descending FlightAware UK
10:58PM 50.8410 4.0290 106° East 491 565 38,000  Climbing FlightAware
10:58PM 50.8289 4.0929 106° East 452 520 36,400 -2,760 Descending FlightAware UK
10:58PM 50.8172 4.1544 107° East 452 520 36,500 3,840 Climbing FlightAware UK
10:58PM 50.8150 4.1630 107° East 488 562 38,000 -300 Climbing FlightAware
10:58PM 50.8015 4.2358 107° East 452 520 36,400 -2,760 Descending FlightAware UK
10:59PM 50.7899 4.2973 107° East 450 518 36,400 3,420 Level FlightAware UK
10:59PM 50.7860 4.3180 107° East 485 558 38,000  Climbing FlightAware
10:59PM 50.7704 4.3988 107° East 450 518 36,400 -2,580 Descending FlightAware UK
11:00PM 50.7585 4.4597 107° East 452 520 36,400 4,800 Level FlightAware UK
11:00PM 50.7600 4.4530 107° East 488 562 38,000  Climbing FlightAware
11:00PM 50.7471 4.5208 107° East 456 525 36,400 -2,880 Descending FlightAware UK
11:00PM 50.7352 4.5811 107° East 456 525 36,400 3,960 Level FlightAware UK
11:00PM 50.7340 4.5900 107° East 487 560 38,000 240 Climbing FlightAware
11:01PM 50.7193 4.6630 107° East 456 525 36,500 -2,520 Descending FlightAware UK
11:01PM 50.7077 4.7240 107° East 454 522 36,500 3,300 Level FlightAware UK
11:01PM 50.7060 4.7350 107° East 481 554 38,000 1,800 Climbing FlightAware
11:02PM 50.6810 4.8620 107° East 481 554 38,000  Level FlightAware
11:02PM 50.6480 5.0290 107° East 480 552 38,000 -240 Level FlightAware
11:03PM 50.6230 5.1560 107° East 481 554 37,700 -1,140 Descending FlightAware
11:04PM 50.5950 5.2970 107° East 483 556 36,500 -1,860 Descending FlightAware
11:05PM 50.5650 5.4470 107° East 483 556 35,100 -1,920 Descending FlightAware
11:05PM 50.5390 5.5740 108° East 480 552 33,800 -1,980 Descending FlightAware
11:06PM 50.5070 5.7290 108° East 473 544 32,300 -1,980 Descending FlightAware
11:07PM 50.4820 5.8540 107° East 466 536 31,000 -1,980 Descending FlightAware
11:07PM 50.4550 5.9840 108° East 461 531 29,700 -1,980 Descending FlightAware
11:08PM 50.4260 6.1240 108° East 456 525 28,200 -1,980 Descending FlightAware
11:09PM 50.4000 6.2480 108° East 452 520 26,900 -1,920 Descending FlightAware
11:09PM 50.3790 6.3470 108° East 448 516 25,800 -2,100 Descending FlightAware
11:10PM 50.3580 6.5160 101° East 432 497 24,000 -2,100 Descending FlightAware
11:11PM 50.3500 6.6390 96° East 425 489 22,700 -1,800 Descending FlightAware
11:12PM 50.3420 6.7690 95° East 413 475 21,500 -1,800 Descending FlightAware
11:12PM 50.3340 6.8880 96° East 408 470 20,200 -1,920 Descending FlightAware
11:13PM 50.3260 7.0130 96° East 403 464 18,800 -1,980 Descending FlightAware
11:14PM 50.3200 7.1080 96° East 402 463 17,600 -2,400 Descending FlightAware
11:14PM 50.3030 7.1740 112° Southeast 409 471 16,600 -1,920 Descending FlightAware
11:15PM 50.2520 7.3060 121° Southeast 391 450 15,200 -1,500 Descending FlightAware
11:15PM 50.2160 7.4030 120° Southeast 371 427 14,300 -1,440 Descending FlightAware
11:16PM 50.1780 7.5070 120° Southeast 361 415 13,200 -1,500 Descending FlightAware
11:17PM 50.1450 7.5940 121° Southeast 351 404 12,200 -1,440 Descending FlightAware
11:18PM 50.1070 7.6940 121° Southeast 332 382 11,200 -900 Descending FlightAware
11:18PM 50.0720 7.7720 125° Southeast 329 379 11,000 -180 Descending FlightAware
11:19PM 50.0390 7.8470 124° Southeast 323 372 11,000  Level FlightAware
11:20PM 50.0020 7.9350 123° Southeast 333 383 11,000  Level FlightAware
11:20PM 49.9990 7.9620 100° East 325 374 11,000  Level FlightAware
11:21PM 50.0200 8.0590 71° East 310 357 11,000  Level FlightAware
11:21PM 50.0410 8.1430 69° East 309 356 11,000  Level FlightAware
11:22PM 50.0630 8.2330 69° East 289 333 11,000  Level FlightAware
11:23PM 50.0800 8.3070 70° East 278 320 11,000  Level FlightAware
11:23PM 50.1010 8.3930 69° East 278 320 11,000 -300 Level FlightAware
11:24PM 50.1190 8.4680 69° East 276 318 10,600 -1,020 Descending FlightAware
11:25PM 50.1380 8.5460 69° East 274 315 9,700 -1,200 Descending FlightAware
11:25PM 50.1500 8.5950 69° East 272 313 9,200 -1,140 Descending FlightAware
11:26PM 50.1610 8.6420 70° East 268 308 8,700 -1,200 Descending FlightAware
11:26PM 50.1740 8.7000 71° East 264 304 8,100 -720 Descending FlightAware
11:27PM 50.1880 8.7540 68° East 265 305 8,000 -120 Descending FlightAware
11:27PM 50.1980 8.7970 70° East 264 304 8,000  Level FlightAware
11:28PM 50.2100 8.8490 70° East 263 303 8,000  Level FlightAware
11:28PM 50.2210 8.8960 70° East 263 303 8,000  Level FlightAware
11:28PM 50.2320 8.9420 69° East 263 303 8,000  Level FlightAware
11:29PM 50.2390 8.9760 72° East 262 302 8,000  Level FlightAware
11:29PM 50.2510 9.0230 68° East 264 304 8,000  Level FlightAware
11:30PM 50.2630 9.0760 70° East 263 303 8,000 -180 Level FlightAware
11:30PM 50.2670 9.1020 76° East 266 306 7,900 -1,080 Descending FlightAware
11:30PM 50.2530 9.1490 115° Southeast 257 296 7,300 -1,500 Descending FlightAware
11:31PM 50.2360 9.1590 159° South 245 282 6,900 -960 Descending FlightAware
11:31PM 50.2070 9.1410 202° Southwest 217 250 6,600 -780 Descending FlightAware
11:32PM 50.1890 9.1170 220° Southwest 216 249 6,200 -900 Descending FlightAware
11:32PM 50.1670 9.0860 222° Southwest 214 246 5,800 -960 Descending FlightAware
11:32PM 50.1570 9.0660 232° Southwest 209 241 5,500 -900 Descending FlightAware
11:33PM 50.1470 9.0370 242° Southwest 198 228 5,200 -660 Descending FlightAware
11:33PM 50.1370 8.9980 248° West 180 207 4,900 -600 Descending FlightAware
11:34PM 50.1300 8.9670 251° West 162 186 4,700 -600 Descending FlightAware
11:34PM 50.1230 8.9350 251° West 161 185 4,400 -600 Descending FlightAware
11:35PM 50.1150 8.9030 249° West 159 183 4,100 -600 Descending FlightAware
11:35PM 50.1090 8.8760 251° West 160 184 3,900 -480 Descending FlightAware
11:36PM 50.1010 8.8440 249° West 160 184 3,700 -600 Descending FlightAware
11:36PM 50.0930 8.8110 249° West 167 192 3,300 -900 Descending FlightAware
11:36PM 50.0860 8.7800 251° West 173 199 2,900 -1,140 Descending FlightAware
11:37PM 50.0780 8.7450 250° West 174 200 2,300 -1,020 Descending FlightAware
11:37PM 50.0710 8.7160 249° West 172 198 2,000 -900 Descending FlightAware
11:38PM 50.0630 8.6840 249° West 155 178 1,500 -900 Descending FlightAware
11:38PM 50.0560 8.6540 250° West 147 169 1,100 -840 Descending FlightAware
11:39PM 50.0520 8.6380 249° West 144 166 900 -780 Descending FlightAware
11:39PM 50.0470 8.6150 251° West 144 166 600 -780 Descending FlightAware
11:40PM 50.0400 8.5860 249° West 145 167 200 -840 Descending FlightAware